TAP1687 LPPT-LPMA
Flight info
| Callsign | TAP1687 |
|---|---|
| Flight time | N/A |
| Altitude | 35000 |
| Route | ULVOT DCT GALPA DCT RAKUN |
| Aircraft | A320/M-SDE3FGHIRWY/LB1 |
Departure
| Time | 2026-05-05 15:24 |
|---|---|
| Airport | Lisbon Humberto Delgado Airport (LPPT) |
Arrival
| Time | N/A |
|---|---|
| Airport | Cristiano Ronaldo International Airport (LPMA) |
| Time | Latitude | Longitude | Altitude | Speed | Heading |
|---|---|---|---|---|---|
| 2026-05-05 15:03 | 38.77255 | -9.13149 | 337 ft | 0 kts | 77° |
| 2026-05-05 15:16 | 38.77251 | -9.13172 | 333 ft | 4 kts | 78° |
| 2026-05-05 15:16 | 38.77247 | -9.13206 | 336 ft | 4 kts | 88° |
| 2026-05-05 15:16 | 38.77250 | -9.13236 | 334 ft | 4 kts | 136° |
| 2026-05-05 15:16 | 38.77257 | -9.13243 | 334 ft | 0 kts | 168° |
| 2026-05-05 15:19 | 38.77252 | -9.13242 | 334 ft | 4 kts | 167° |
| 2026-05-05 15:19 | 38.77195 | -9.13224 | 333 ft | 8 kts | 168° |
| 2026-05-05 15:19 | 38.77143 | -9.13210 | 338 ft | 7 kts | 168° |
| 2026-05-05 15:19 | 38.77100 | -9.13199 | 336 ft | 7 kts | 168° |
| 2026-05-05 15:20 | 38.77040 | -9.13200 | 337 ft | 8 kts | 202° |
| 2026-05-05 15:20 | 38.77018 | -9.13246 | 337 ft | 6 kts | 246° |
| 2026-05-05 15:20 | 38.76987 | -9.13278 | 339 ft | 4 kts | 198° |
| 2026-05-05 15:20 | 38.76928 | -9.13270 | 340 ft | 22 kts | 168° |
| 2026-05-05 15:21 | 38.76762 | -9.13285 | 339 ft | 20 kts | 249° |
| 2026-05-05 15:21 | 38.76711 | -9.13413 | 347 ft | 16 kts | 217° |
| 2026-05-05 15:21 | 38.76649 | -9.13522 | 346 ft | 16 kts | 258° |
| 2026-05-05 15:21 | 38.76625 | -9.13663 | 349 ft | 16 kts | 256° |
| 2026-05-05 15:22 | 38.76601 | -9.13807 | 354 ft | 17 kts | 259° |
| 2026-05-05 15:22 | 38.76576 | -9.13958 | 346 ft | 17 kts | 258° |
| 2026-05-05 15:22 | 38.76559 | -9.14118 | 343 ft | 19 kts | 275° |
| 2026-05-05 15:22 | 38.76613 | -9.14290 | 334 ft | 22 kts | 293° |
| 2026-05-05 15:23 | 38.76641 | -9.14355 | 332 ft | 3 kts | 310° |
| 2026-05-05 15:23 | 38.76668 | -9.14367 | 337 ft | 7 kts | 355° |
| 2026-05-05 15:23 | 38.76711 | -9.14353 | 336 ft | 6 kts | 21° |
| 2026-05-05 15:23 | 38.76898 | -9.14254 | 353 ft | 63 kts | 22° |
| 2026-05-05 15:24 | 38.77496 | -9.13936 | 365 ft | 121 kts | 22° |
| 2026-05-05 15:24 | 38.78422 | -9.13441 | 365 ft | 166 kts | 22° |
| 2026-05-05 15:24 | 38.79539 | -9.12842 | 833 ft | 172 kts | 21° |
| 2026-05-05 15:24 | 38.80633 | -9.12231 | 1483 ft | 173 kts | 18° |
| 2026-05-05 15:25 | 38.81730 | -9.11547 | 2115 ft | 177 kts | 23° |
| 2026-05-05 15:25 | 38.82838 | -9.10671 | 2440 ft | 198 kts | 31° |
| 2026-05-05 15:25 | 38.83884 | -9.09469 | 3022 ft | 206 kts | 41° |
| 2026-05-05 15:25 | 38.84659 | -9.07799 | 3232 ft | 240 kts | 76° |
| 2026-05-05 15:26 | 38.84451 | -9.05546 | 3530 ft | 276 kts | 114° |
| 2026-05-05 15:26 | 38.83132 | -9.03724 | 4216 ft | 287 kts | 152° |
| 2026-05-05 15:26 | 38.81213 | -9.03162 | 5022 ft | 287 kts | 187° |
| 2026-05-05 15:26 | 38.79344 | -9.03966 | 5891 ft | 284 kts | 212° |
| 2026-05-05 15:27 | 38.77747 | -9.05433 | 6777 ft | 283 kts | 222° |
| 2026-05-05 15:27 | 38.76251 | -9.07082 | 7545 ft | 286 kts | 224° |
| 2026-05-05 15:27 | 38.74747 | -9.08767 | 8338 ft | 289 kts | 223° |
| 2026-05-05 15:27 | 38.73705 | -9.09841 | 8847 ft | 292 kts | 221° |
| 2026-05-05 15:28 | 38.72054 | -9.11397 | 9620 ft | 297 kts | 218° |
| 2026-05-05 15:28 | 38.70336 | -9.12892 | 10336 ft | 302 kts | 217° |
| 2026-05-05 15:28 | 38.68506 | -9.14416 | 10564 ft | 325 kts | 216° |
| 2026-05-05 15:28 | 38.66526 | -9.16020 | 10746 ft | 348 kts | 215° |
| 2026-05-05 15:29 | 38.63752 | -9.18240 | 11422 ft | 359 kts | 215° |
| 2026-05-05 15:29 | 38.61621 | -9.19941 | 12092 ft | 362 kts | 215° |
| 2026-05-05 15:29 | 38.60172 | -9.21102 | 12546 ft | 365 kts | 216° |
| 2026-05-05 15:29 | 38.58017 | -9.22837 | 13222 ft | 367 kts | 216° |
| 2026-05-05 15:30 | 38.55136 | -9.25167 | 14103 ft | 371 kts | 216° |
| 2026-05-05 15:30 | 38.53691 | -9.26339 | 14501 ft | 373 kts | 216° |
| 2026-05-05 15:30 | 38.51482 | -9.28131 | 15116 ft | 374 kts | 216° |
| 2026-05-05 15:30 | 38.49273 | -9.29917 | 15723 ft | 376 kts | 215° |
| 2026-05-05 15:31 | 38.47051 | -9.31704 | 16334 ft | 378 kts | 215° |
| 2026-05-05 15:31 | 38.44816 | -9.33496 | 16934 ft | 380 kts | 216° |
| 2026-05-05 15:31 | 38.42600 | -9.35272 | 17515 ft | 382 kts | 215° |
| 2026-05-05 15:31 | 38.40345 | -9.37081 | 18092 ft | 384 kts | 216° |
| 2026-05-05 15:32 | 38.38080 | -9.38906 | 18638 ft | 386 kts | 216° |
| 2026-05-05 15:32 | 38.35808 | -9.40740 | 19111 ft | 388 kts | 216° |
| 2026-05-05 15:32 | 38.33517 | -9.42585 | 19572 ft | 390 kts | 215° |
| 2026-05-05 15:32 | 38.31215 | -9.44435 | 20042 ft | 392 kts | 215° |
| 2026-05-05 15:33 | 38.28900 | -9.46291 | 20503 ft | 394 kts | 215° |
| 2026-05-05 15:33 | 38.26568 | -9.48155 | 20950 ft | 397 kts | 215° |
| 2026-05-05 15:33 | 38.24224 | -9.50025 | 21408 ft | 399 kts | 215° |
| 2026-05-05 15:33 | 38.21863 | -9.51914 | 21858 ft | 401 kts | 215° |
| 2026-05-05 15:34 | 38.19493 | -9.53811 | 22300 ft | 403 kts | 215° |
| 2026-05-05 15:34 | 38.17114 | -9.55716 | 22737 ft | 405 kts | 215° |
| 2026-05-05 15:34 | 38.14723 | -9.57627 | 23169 ft | 407 kts | 215° |
| 2026-05-05 15:34 | 38.12314 | -9.59549 | 23603 ft | 409 kts | 215° |
| 2026-05-05 15:35 | 38.09924 | -9.61454 | 23955 ft | 411 kts | 215° |
| 2026-05-05 15:35 | 38.07496 | -9.63386 | 24320 ft | 413 kts | 216° |
| 2026-05-05 15:35 | 38.05059 | -9.65321 | 24687 ft | 413 kts | 216° |
| 2026-05-05 15:35 | 38.02618 | -9.67258 | 25052 ft | 414 kts | 216° |
| 2026-05-05 15:36 | 38.00173 | -9.69201 | 25417 ft | 415 kts | 216° |
| 2026-05-05 15:36 | 37.97714 | -9.71152 | 25773 ft | 416 kts | 216° |
| 2026-05-05 15:36 | 37.95256 | -9.73100 | 26131 ft | 417 kts | 216° |
| 2026-05-05 15:36 | 37.92786 | -9.75054 | 26477 ft | 418 kts | 216° |
| 2026-05-05 15:37 | 37.90318 | -9.77007 | 26831 ft | 419 kts | 216° |
| 2026-05-05 15:37 | 37.87840 | -9.78966 | 27171 ft | 420 kts | 216° |
| 2026-05-05 15:37 | 37.85356 | -9.80931 | 27516 ft | 421 kts | 217° |
| 2026-05-05 15:37 | 37.82870 | -9.82894 | 27838 ft | 422 kts | 217° |
| 2026-05-05 15:38 | 37.80376 | -9.84858 | 28174 ft | 423 kts | 217° |
| 2026-05-05 15:38 | 37.77909 | -9.86807 | 28493 ft | 423 kts | 217° |
| 2026-05-05 15:38 | 37.75411 | -9.88781 | 28756 ft | 424 kts | 216° |
| 2026-05-05 15:38 | 37.72901 | -9.90764 | 29043 ft | 426 kts | 217° |
| 2026-05-05 15:39 | 37.70380 | -9.92748 | 29336 ft | 427 kts | 216° |
| 2026-05-05 15:39 | 37.67854 | -9.94729 | 29623 ft | 428 kts | 217° |
| 2026-05-05 15:39 | 37.65321 | -9.96715 | 29902 ft | 429 kts | 217° |
| 2026-05-05 15:39 | 37.62914 | -9.98902 | 30236 ft | 423 kts | 225° |
| 2026-05-05 15:40 | 37.60846 | -10.01492 | 30568 ft | 417 kts | 233° |
| 2026-05-05 15:40 | 37.59033 | -10.04337 | 30878 ft | 415 kts | 234° |
| 2026-05-05 15:40 | 37.57235 | -10.07175 | 31191 ft | 414 kts | 234° |
| 2026-05-05 15:40 | 37.55434 | -10.10010 | 31501 ft | 413 kts | 234° |
| 2026-05-05 15:41 | 37.53640 | -10.12828 | 31811 ft | 412 kts | 234° |
| 2026-05-05 15:41 | 37.51867 | -10.15611 | 32118 ft | 411 kts | 234° |
| 2026-05-05 15:41 | 37.50076 | -10.18425 | 32347 ft | 412 kts | 234° |
| 2026-05-05 15:41 | 37.48282 | -10.21240 | 32577 ft | 413 kts | 234° |
| 2026-05-05 15:42 | 37.46483 | -10.24056 | 32825 ft | 413 kts | 234° |
| 2026-05-05 15:42 | 37.44679 | -10.26878 | 33100 ft | 413 kts | 234° |
| 2026-05-05 15:42 | 37.42880 | -10.29687 | 33396 ft | 412 kts | 234° |
| 2026-05-05 15:42 | 37.41083 | -10.32494 | 33689 ft | 411 kts | 234° |
| 2026-05-05 15:43 | 37.39285 | -10.35302 | 33977 ft | 411 kts | 234° |
| 2026-05-05 15:43 | 37.37498 | -10.38096 | 34249 ft | 410 kts | 234° |
| 2026-05-05 15:43 | 37.35712 | -10.40885 | 34494 ft | 410 kts | 234° |
| 2026-05-05 15:43 | 37.33923 | -10.43674 | 34737 ft | 409 kts | 234° |
| 2026-05-05 15:44 | 37.32135 | -10.46460 | 34967 ft | 409 kts | 234° |
| 2026-05-05 15:44 | 37.30346 | -10.49243 | 35105 ft | 409 kts | 234° |
| 2026-05-05 15:44 | 37.28555 | -10.52022 | 35140 ft | 409 kts | 234° |
| 2026-05-05 15:45 | 37.24996 | -10.57536 | 35135 ft | 409 kts | 234° |
| 2026-05-05 15:45 | 37.21409 | -10.63097 | 35137 ft | 411 kts | 233° |
| 2026-05-05 15:46 | 37.17800 | -10.68676 | 35143 ft | 411 kts | 233° |
| 2026-05-05 15:46 | 37.14184 | -10.74250 | 35143 ft | 411 kts | 233° |
| 2026-05-05 15:47 | 37.10597 | -10.79780 | 35139 ft | 411 kts | 233° |
| 2026-05-05 15:47 | 37.06984 | -10.85340 | 35140 ft | 411 kts | 233° |
| 2026-05-05 15:48 | 37.03361 | -10.90899 | 35151 ft | 411 kts | 233° |
| 2026-05-05 15:48 | 36.99746 | -10.96447 | 35141 ft | 412 kts | 233° |
| 2026-05-05 15:49 | 36.96145 | -11.01970 | 35130 ft | 412 kts | 233° |
| 2026-05-05 15:49 | 36.92510 | -11.07519 | 35136 ft | 412 kts | 233° |
| 2026-05-05 15:50 | 36.88867 | -11.13069 | 35142 ft | 413 kts | 233° |
| 2026-05-05 15:50 | 36.85226 | -11.18621 | 35153 ft | 413 kts | 233° |
| 2026-05-05 15:51 | 36.81580 | -11.24170 | 35149 ft | 413 kts | 233° |
| 2026-05-05 15:51 | 36.77962 | -11.29671 | 35146 ft | 413 kts | 233° |
| 2026-05-05 15:52 | 36.74310 | -11.35202 | 35145 ft | 413 kts | 233° |
| 2026-05-05 15:52 | 36.70659 | -11.40735 | 35144 ft | 413 kts | 233° |
| 2026-05-05 15:53 | 36.67011 | -11.46246 | 35134 ft | 413 kts | 233° |
| 2026-05-05 15:53 | 36.63343 | -11.51770 | 35145 ft | 414 kts | 233° |
| 2026-05-05 15:54 | 36.59669 | -11.57311 | 35154 ft | 414 kts | 233° |
| 2026-05-05 15:54 | 36.55990 | -11.62840 | 35159 ft | 414 kts | 233° |
| 2026-05-05 15:55 | 36.52325 | -11.68335 | 35161 ft | 414 kts | 233° |
| 2026-05-05 15:55 | 36.48642 | -11.73848 | 35163 ft | 414 kts | 233° |
| 2026-05-05 15:56 | 36.44960 | -11.79362 | 35167 ft | 414 kts | 233° |
| 2026-05-05 15:56 | 36.41283 | -11.84866 | 35166 ft | 414 kts | 233° |
| 2026-05-05 15:57 | 36.37593 | -11.90363 | 35149 ft | 413 kts | 232° |
| 2026-05-05 15:57 | 36.33936 | -11.95792 | 35154 ft | 412 kts | 232° |
| 2026-05-05 15:58 | 36.30261 | -12.01258 | 35156 ft | 412 kts | 232° |
| 2026-05-05 15:58 | 36.26593 | -12.06716 | 35157 ft | 412 kts | 233° |
| 2026-05-05 15:59 | 36.22912 | -12.12171 | 35159 ft | 411 kts | 232° |
| 2026-05-05 15:59 | 36.19238 | -12.17601 | 35160 ft | 411 kts | 232° |
| 2026-05-05 16:00 | 36.15584 | -12.22989 | 35163 ft | 411 kts | 232° |
| 2026-05-05 16:00 | 36.11911 | -12.28410 | 35165 ft | 411 kts | 232° |
| 2026-05-05 16:01 | 36.08238 | -12.33823 | 35158 ft | 411 kts | 232° |
| 2026-05-05 16:01 | 36.04552 | -12.39232 | 35160 ft | 410 kts | 232° |
| 2026-05-05 16:02 | 36.00873 | -12.44632 | 35161 ft | 410 kts | 232° |
| 2026-05-05 16:02 | 35.97197 | -12.50020 | 35165 ft | 410 kts | 232° |
| 2026-05-05 16:03 | 35.93520 | -12.55404 | 35168 ft | 410 kts | 232° |
| 2026-05-05 16:03 | 35.89833 | -12.60781 | 35169 ft | 410 kts | 232° |
| 2026-05-05 16:04 | 35.86155 | -12.66151 | 35170 ft | 410 kts | 232° |
| 2026-05-05 16:04 | 35.82499 | -12.71485 | 35168 ft | 410 kts | 232° |
| 2026-05-05 16:05 | 35.78809 | -12.76850 | 35155 ft | 410 kts | 232° |
| 2026-05-05 16:05 | 35.75111 | -12.82214 | 35153 ft | 410 kts | 232° |
| 2026-05-05 16:06 | 35.71417 | -12.87564 | 35157 ft | 410 kts | 232° |
| 2026-05-05 16:06 | 35.67719 | -12.92910 | 35160 ft | 410 kts | 232° |
| 2026-05-05 16:07 | 35.64039 | -12.98222 | 35164 ft | 410 kts | 232° |
| 2026-05-05 16:07 | 35.60338 | -13.03564 | 35164 ft | 410 kts | 231° |
| 2026-05-05 16:08 | 35.56628 | -13.08912 | 35165 ft | 410 kts | 231° |
| 2026-05-05 16:08 | 35.52923 | -13.14232 | 35166 ft | 410 kts | 231° |
| 2026-05-05 16:09 | 35.49236 | -13.19522 | 35149 ft | 411 kts | 231° |
| 2026-05-05 16:09 | 35.45515 | -13.24858 | 35151 ft | 411 kts | 231° |
| 2026-05-05 16:10 | 35.41786 | -13.30194 | 35153 ft | 412 kts | 231° |
| 2026-05-05 16:10 | 35.38048 | -13.35517 | 35161 ft | 412 kts | 231° |
| 2026-05-05 16:11 | 35.34309 | -13.40848 | 35158 ft | 412 kts | 231° |
| 2026-05-05 16:12 | 35.26873 | -13.51459 | 35152 ft | 412 kts | 231° |
| 2026-05-05 16:13 | 35.17501 | -13.64750 | 35161 ft | 412 kts | 231° |
| 2026-05-05 16:13 | 35.13775 | -13.70015 | 35162 ft | 412 kts | 231° |
| 2026-05-05 16:14 | 35.06262 | -13.80609 | 35163 ft | 412 kts | 231° |
| 2026-05-05 16:15 | 34.98773 | -13.91152 | 35166 ft | 412 kts | 231° |
| 2026-05-05 16:16 | 34.91878 | -14.00826 | 35140 ft | 412 kts | 231° |
| 2026-05-05 16:17 | 34.86225 | -14.08738 | 35148 ft | 413 kts | 231° |
| 2026-05-05 16:18 | 34.80550 | -14.16655 | 35151 ft | 414 kts | 231° |
| 2026-05-05 16:19 | 34.74863 | -14.24580 | 35161 ft | 414 kts | 231° |
| 2026-05-05 16:19 | 34.69186 | -14.32462 | 35159 ft | 415 kts | 230° |
| 2026-05-05 16:20 | 34.61574 | -14.43021 | 35141 ft | 415 kts | 231° |
| 2026-05-05 16:22 | 34.52010 | -14.56236 | 35143 ft | 417 kts | 230° |
| 2026-05-05 16:23 | 34.44337 | -14.66804 | 35153 ft | 417 kts | 231° |
| 2026-05-05 16:23 | 34.38560 | -14.74685 | 35155 ft | 417 kts | 230° |
| 2026-05-05 16:24 | 34.34591 | -14.79753 | 35157 ft | 417 kts | 228° |
| 2026-05-05 16:25 | 34.28518 | -14.87311 | 35146 ft | 417 kts | 228° |
| 2026-05-05 16:25 | 34.22483 | -14.94914 | 35142 ft | 417 kts | 229° |
| 2026-05-05 16:26 | 34.14461 | -15.05033 | 35135 ft | 419 kts | 228° |
| 2026-05-05 16:27 | 34.10425 | -15.10106 | 35136 ft | 418 kts | 228° |
| 2026-05-05 16:27 | 34.06386 | -15.15173 | 35136 ft | 419 kts | 228° |
| 2026-05-05 16:28 | 34.02337 | -15.20245 | 34805 ft | 420 kts | 228° |
| 2026-05-05 16:28 | 34.00313 | -15.22776 | 34568 ft | 420 kts | 228° |
| 2026-05-05 16:28 | 33.98294 | -15.25294 | 34331 ft | 414 kts | 228° |
| 2026-05-05 16:29 | 33.96293 | -15.27789 | 34078 ft | 411 kts | 228° |
| 2026-05-05 16:29 | 33.94312 | -15.30259 | 33804 ft | 410 kts | 228° |
| 2026-05-05 16:29 | 33.92332 | -15.32735 | 33534 ft | 410 kts | 228° |
| 2026-05-05 16:29 | 33.90350 | -15.35211 | 33264 ft | 411 kts | 228° |
| 2026-05-05 16:30 | 33.88385 | -15.37664 | 33004 ft | 412 kts | 228° |
| 2026-05-05 16:30 | 33.86394 | -15.40145 | 32734 ft | 412 kts | 228° |
| 2026-05-05 16:30 | 33.84398 | -15.42626 | 32470 ft | 413 kts | 228° |
| 2026-05-05 16:30 | 33.82392 | -15.45116 | 32226 ft | 414 kts | 228° |
| 2026-05-05 16:31 | 33.80384 | -15.47610 | 31965 ft | 415 kts | 228° |
| 2026-05-05 16:31 | 33.78378 | -15.50102 | 31711 ft | 414 kts | 228° |
| 2026-05-05 16:31 | 33.76374 | -15.52587 | 31446 ft | 413 kts | 228° |
| 2026-05-05 16:31 | 33.74378 | -15.55058 | 30913 ft | 411 kts | 228° |
| 2026-05-05 16:32 | 33.72392 | -15.57518 | 30339 ft | 408 kts | 227° |
| 2026-05-05 16:32 | 33.70423 | -15.59954 | 29748 ft | 405 kts | 227° |
| 2026-05-05 16:32 | 33.68468 | -15.62369 | 29199 ft | 401 kts | 227° |
| 2026-05-05 16:32 | 33.66530 | -15.64760 | 28670 ft | 398 kts | 227° |
| 2026-05-05 16:33 | 33.64609 | -15.67130 | 28163 ft | 394 kts | 228° |
| 2026-05-05 16:33 | 33.62734 | -15.69446 | 28014 ft | 380 kts | 228° |
| 2026-05-05 16:33 | 33.60921 | -15.71681 | 27876 ft | 368 kts | 228° |
| 2026-05-05 16:33 | 33.59161 | -15.73849 | 27656 ft | 358 kts | 228° |
| 2026-05-05 16:34 | 33.57434 | -15.75973 | 27255 ft | 353 kts | 228° |
| 2026-05-05 16:34 | 33.55746 | -15.78054 | 26819 ft | 350 kts | 228° |
| 2026-05-05 16:34 | 33.54038 | -15.80121 | 26383 ft | 348 kts | 227° |
| 2026-05-05 16:34 | 33.52315 | -15.82156 | 25932 ft | 346 kts | 227° |
| 2026-05-05 16:35 | 33.50596 | -15.84164 | 25508 ft | 344 kts | 226° |
| 2026-05-05 16:35 | 33.48884 | -15.86153 | 25072 ft | 342 kts | 226° |
| 2026-05-05 16:35 | 33.47168 | -15.88146 | 24498 ft | 345 kts | 226° |
| 2026-05-05 16:35 | 33.45440 | -15.90156 | 23923 ft | 347 kts | 226° |
| 2026-05-05 16:36 | 33.43722 | -15.92158 | 23041 ft | 345 kts | 227° |
| 2026-05-05 16:36 | 33.41977 | -15.94199 | 21810 ft | 354 kts | 227° |
| 2026-05-05 16:36 | 33.40246 | -15.96224 | 21503 ft | 341 kts | 227° |
| 2026-05-05 16:36 | 33.38534 | -15.98227 | 21245 ft | 345 kts | 227° |
| 2026-05-05 16:37 | 33.36818 | -16.00231 | 20831 ft | 344 kts | 227° |
| 2026-05-05 16:37 | 33.35108 | -16.02223 | 20410 ft | 342 kts | 227° |
| 2026-05-05 16:37 | 33.33401 | -16.04213 | 19986 ft | 342 kts | 227° |
| 2026-05-05 16:37 | 33.31692 | -16.06206 | 19547 ft | 343 kts | 227° |
| 2026-05-05 16:38 | 33.30000 | -16.08179 | 19109 ft | 345 kts | 227° |
| 2026-05-05 16:38 | 33.28281 | -16.10182 | 18661 ft | 345 kts | 227° |
| 2026-05-05 16:38 | 33.26556 | -16.12192 | 18176 ft | 348 kts | 227° |
| 2026-05-05 16:38 | 33.24817 | -16.14221 | 17690 ft | 350 kts | 227° |
| 2026-05-05 16:39 | 33.23070 | -16.16257 | 17215 ft | 351 kts | 227° |
| 2026-05-05 16:39 | 33.21327 | -16.18284 | 16772 ft | 349 kts | 226° |
| 2026-05-05 16:39 | 33.19590 | -16.20298 | 16317 ft | 347 kts | 226° |
| 2026-05-05 16:39 | 33.17866 | -16.22295 | 15864 ft | 344 kts | 226° |
| 2026-05-05 16:40 | 33.16153 | -16.24280 | 15418 ft | 342 kts | 226° |
| 2026-05-05 16:40 | 33.14449 | -16.26255 | 14971 ft | 340 kts | 226° |
| 2026-05-05 16:40 | 33.12760 | -16.28212 | 14514 ft | 338 kts | 226° |
| 2026-05-05 16:40 | 33.11079 | -16.30158 | 14082 ft | 336 kts | 225° |
| 2026-05-05 16:41 | 33.09403 | -16.32093 | 13607 ft | 335 kts | 225° |
| 2026-05-05 16:41 | 33.07734 | -16.34018 | 13150 ft | 333 kts | 225° |
| 2026-05-05 16:41 | 33.06075 | -16.35933 | 12697 ft | 330 kts | 225° |
| 2026-05-05 16:41 | 33.04430 | -16.37832 | 12234 ft | 328 kts | 225° |
| 2026-05-05 16:42 | 33.02792 | -16.39723 | 11784 ft | 326 kts | 225° |
| 2026-05-05 16:42 | 33.01164 | -16.41602 | 11326 ft | 325 kts | 225° |
| 2026-05-05 16:42 | 32.99561 | -16.43451 | 10875 ft | 325 kts | 225° |
| 2026-05-05 16:42 | 32.97931 | -16.45330 | 10552 ft | 323 kts | 224° |
| 2026-05-05 16:43 | 32.96359 | -16.47139 | 10424 ft | 305 kts | 225° |
| 2026-05-05 16:43 | 32.94871 | -16.48851 | 10163 ft | 292 kts | 225° |
| 2026-05-05 16:43 | 32.93431 | -16.50507 | 9922 ft | 285 kts | 224° |
| 2026-05-05 16:43 | 32.91993 | -16.52140 | 9929 ft | 287 kts | 224° |
| 2026-05-05 16:44 | 32.90518 | -16.53740 | 9717 ft | 288 kts | 222° |
| 2026-05-05 16:44 | 32.89029 | -16.55319 | 9185 ft | 285 kts | 222° |
| 2026-05-05 16:44 | 32.87588 | -16.56834 | 8933 ft | 269 kts | 222° |
| 2026-05-05 16:44 | 32.86204 | -16.58295 | 8440 ft | 264 kts | 222° |
| 2026-05-05 16:45 | 32.84853 | -16.59727 | 8120 ft | 256 kts | 222° |
| 2026-05-05 16:45 | 32.83519 | -16.61146 | 7652 ft | 257 kts | 222° |
| 2026-05-05 16:45 | 32.82154 | -16.62507 | 7137 ft | 254 kts | 213° |
| 2026-05-05 16:45 | 32.80616 | -16.63511 | 6671 ft | 251 kts | 201° |
| 2026-05-05 16:46 | 32.78973 | -16.64195 | 6216 ft | 250 kts | 198° |
| 2026-05-05 16:46 | 32.77329 | -16.64860 | 5759 ft | 249 kts | 197° |
| 2026-05-05 16:46 | 32.75677 | -16.65533 | 5345 ft | 252 kts | 198° |
| 2026-05-05 16:46 | 32.74023 | -16.66209 | 4976 ft | 248 kts | 195° |
| 2026-05-05 16:47 | 32.72429 | -16.66862 | 4490 ft | 243 kts | 194° |
| 2026-05-05 16:47 | 32.70835 | -16.67511 | 4034 ft | 242 kts | 195° |
| 2026-05-05 16:47 | 32.69254 | -16.68153 | 3865 ft | 231 kts | 195° |
| 2026-05-05 16:47 | 32.67774 | -16.68757 | 3803 ft | 219 kts | 193° |
| 2026-05-05 16:48 | 32.66386 | -16.69323 | 3712 ft | 207 kts | 194° |
| 2026-05-05 16:48 | 32.65085 | -16.69855 | 3645 ft | 188 kts | 194° |
| 2026-05-05 16:48 | 32.63871 | -16.70359 | 3546 ft | 184 kts | 199° |
| 2026-05-05 16:48 | 32.62743 | -16.71118 | 3134 ft | 192 kts | 214° |
| 2026-05-05 16:49 | 32.61802 | -16.72259 | 2675 ft | 195 kts | 231° |